Time;durP1;ratioP1;P1;durP2;ratioP2;P2;SDS_P1;SDS_P2;PMS_P1;PMS_P2;Temp;Humidity;BMP_temperature;BMP_pressure;BME280_temperature;BME280_humidity;BME280_pressure;Samples;Min_cycle;Max_cycle;Signal;HPM_P1;HPM_P2
2023/01/20 00:02:04;;;;;;;27.23;21.53;;;3.50;99.90;;;;;;4950599;28;20122;-86
2023/01/20 00:04:30;;;;;;;28.40;19.93;;;3.50;99.90;;;;;;4936063;29;20051;-87
2023/01/20 00:06:56;;;;;;;26.30;20.30;;;3.50;99.90;;;;;;4935661;29;20035;-87
2023/01/20 00:09:22;;;;;;;23.20;19.80;;;3.50;99.90;;;;;;4961773;28;20073;-87
2023/01/20 00:11:48;;;;;;;23.10;20.20;;;3.50;99.90;;;;;;5023472;28;20093;-87
2023/01/20 00:14:14;;;;;;;22.77;19.83;;;3.60;99.90;;;;;;4992331;28;20046;-87
2023/01/20 00:16:40;;;;;;;24.17;19.83;;;3.50;99.90;;;;;;5003512;28;20046;-87
2023/01/20 00:19:06;;;;;;;24.20;20.37;;;3.50;99.90;;;;;;5012516;28;20033;-87
2023/01/20 00:21:33;;;;;;;26.33;20.07;;;3.50;99.90;;;;;;4996895;28;20045;-87
2023/01/20 00:23:59;;;;;;;26.97;19.53;;;3.50;99.90;;;;;;4990688;28;20049;-87
2023/01/20 00:26:26;;;;;;;24.37;20.27;;;3.50;99.90;;;;;;4992391;28;20034;-86
2023/01/20 00:28:52;;;;;;;27.77;19.57;;;3.50;99.90;;;;;;5023821;28;20062;-86
2023/01/20 00:31:20;;;;;;;23.20;19.10;;;3.50;99.90;;;;;;5023273;28;20035;-86
2023/01/20 00:33:47;;;;;;;25.50;19.70;;;3.40;99.90;;;;;;5020997;28;20101;-87
2023/01/20 00:36:14;;;;;;;29.50;19.63;;;3.40;99.90;;;;;;5023829;28;20038;-87
2023/01/20 00:38:40;;;;;;;26.93;20.50;;;3.40;99.90;;;;;;4991525;28;20022;-87
2023/01/20 00:41:06;;;;;;;23.07;20.47;;;3.40;99.90;;;;;;4991255;28;20490;-87
2023/01/20 00:43:32;;;;;;;24.30;18.73;;;3.40;99.90;;;;;;5002358;28;20498;-87
2023/01/20 00:45:58;;;;;;;23.63;19.53;;;3.30;99.90;;;;;;4990990;28;20031;-86
2023/01/20 00:48:24;;;;;;;26.30;19.83;;;3.30;99.90;;;;;;4974528;28;20038;-86
2023/01/20 00:50:51;;;;;;;25.10;19.63;;;3.30;99.90;;;;;;4991551;28;20033;-87
2023/01/20 00:53:17;;;;;;;27.97;19.93;;;3.30;99.90;;;;;;4991507;28;20038;-87
2023/01/20 00:55:43;;;;;;;24.73;20.27;;;3.30;99.90;;;;;;4990892;28;20031;-86
2023/01/20 00:58:09;;;;;;;23.83;17.80;;;3.30;99.90;;;;;;4990175;28;20038;-87
2023/01/20 01:00:35;;;;;;;24.77;19.47;;;3.30;99.90;;;;;;4991621;28;20444;-86
2023/01/20 01:03:01;;;;;;;21.00;18.63;;;3.30;99.90;;;;;;5023605;28;20502;-87
2023/01/20 01:05:27;;;;;;;22.07;19.50;;;3.30;99.90;;;;;;5007826;28;20026;-86
2023/01/20 01:07:53;;;;;;;23.10;18.50;;;3.40;99.90;;;;;;5006853;28;20073;-87
2023/01/20 01:10:20;;;;;;;21.40;18.03;;;3.30;99.90;;;;;;4991072;28;20392;-87
2023/01/20 01:12:46;;;;;;;19.90;17.80;;;3.40;99.90;;;;;;5001817;28;20037;-87
2023/01/20 01:15:12;;;;;;;23.77;19.53;;;3.40;99.90;;;;;;5009745;28;20499;-86
2023/01/20 01:17:38;;;;;;;20.83;18.33;;;3.30;99.90;;;;;;5007596;28;20041;-87
2023/01/20 01:20:04;;;;;;;24.30;17.67;;;3.30;99.90;;;;;;4994522;28;20031;-86
2023/01/20 01:22:31;;;;;;;21.00;18.80;;;3.30;99.90;;;;;;4994109;28;20381;-87
2023/01/20 01:24:57;;;;;;;22.67;18.20;;;3.40;99.90;;;;;;4995269;28;20041;-87
2023/01/20 01:27:24;;;;;;;21.33;18.33;;;3.40;99.90;;;;;;4995634;28;20392;-86
2023/01/20 01:29:50;;;;;;;23.73;17.87;;;3.30;99.90;;;;;;4996804;28;20057;-86
2023/01/20 01:32:16;;;;;;;18.90;16.80;;;3.30;99.90;;;;;;5003460;28;20029;-87
2023/01/20 01:34:42;;;;;;;24.30;19.20;;;3.20;99.90;;;;;;5003035;28;20042;-87
2023/01/20 01:37:08;;;;;;;24.87;18.40;;;3.20;99.90;;;;;;4994460;28;20026;-87
2023/01/20 01:39:34;;;;;;;21.20;18.67;;;3.20;99.90;;;;;;4995467;28;20376;-86
2023/01/20 01:42:00;;;;;;;24.13;19.43;;;3.20;99.90;;;;;;4978873;28;20038;-86
2023/01/20 01:44:27;;;;;;;24.67;18.57;;;3.10;99.90;;;;;;5008879;28;20369;-87
2023/01/20 01:46:53;;;;;;;21.00;18.83;;;3.10;99.90;;;;;;4993863;28;20038;-86
2023/01/20 01:49:24;;;;;;;21.23;18.80;;;3.10;99.90;;;;;;5013958;28;20041;-87
2023/01/20 01:51:52;;;;;;;28.13;20.45;;;3.10;99.90;;;;;;5013533;28;20033;-86
2023/01/20 01:54:21;;;;;;;27.47;20.87;;;3.10;99.90;;;;;;4997300;28;20045;-87
2023/01/20 01:56:47;;;;;;;24.70;20.33;;;3.10;99.90;;;;;;5013753;28;20025;-87
2023/01/20 01:59:13;;;;;;;26.37;20.57;;;3.10;99.90;;;;;;4989190;28;20027;-86
2023/01/20 02:01:40;;;;;;;22.50;19.80;;;3.00;99.90;;;;;;5008880;28;20031;-87
2023/01/20 02:04:11;;;;;;;30.20;20.37;;;3.00;99.90;;;;;;4994113;28;20042;-87
2023/01/20 02:06:38;;;;;;;;;;;3.00;99.90;;;;;;4994509;28;20030;-86
2023/01/20 02:09:04;;;;;;;22.83;18.53;;;2.90;99.90;;;;;;4995436;28;19918;-87
2023/01/20 02:11:34;;;;;;;26.27;19.27;;;2.90;99.90;;;;;;5010144;28;20030;-87
2023/01/20 02:14:00;;;;;;;27.17;19.60;;;2.90;99.90;;;;;;5007320;28;20047;-86
2023/01/20 02:16:57;;;;;;;26.23;19.30;;;2.80;99.90;;;;;;5010675;28;20487;-85
2023/01/20 02:19:38;;;;;;;23.53;19.83;;;2.80;99.90;;;;;;4993787;28;20038;-86
2023/01/20 02:22:12;;;;;;;27.90;20.45;;;2.70;99.90;;;;;;4980647;28;20038;-88
2023/01/20 02:25:05;;;;;;;22.20;19.90;;;2.80;99.90;;;;;;4993047;28;20599;-87
2023/01/20 02:27:58;;;;;;;28.10;21.53;;;2.80;99.90;;;;;;4978888;28;20043;-86
2023/01/20 02:30:42;;;;;;;28.53;21.37;;;2.80;99.90;;;;;;4971113;28;20615;-87
2023/01/20 02:33:36;;;;;;;28.03;21.20;;;2.80;99.90;;;;;;4962078;28;20496;-87
2023/01/20 02:36:14;;;;;;;25.90;19.90;;;2.80;99.90;;;;;;4915480;29;20036;-86
2023/01/20 02:38:43;;;;;;;23.57;19.67;;;2.80;99.90;;;;;;4884494;29;20402;-87
2023/01/20 02:41:14;;;;;;;23.57;20.20;;;2.80;99.90;;;;;;4884529;29;20048;-87
2023/01/20 02:44:02;;;;;;;25.15;20.42;;;2.70;99.90;;;;;;4907176;29;20043;-86
2023/01/20 02:46:35;;;;;;;29.00;20.27;;;2.70;99.90;;;;;;4883363;29;20037;-86
2023/01/20 02:49:07;;;;;;;26.23;20.60;;;2.70;99.90;;;;;;4912070;29;20044;-86
2023/01/20 02:51:39;;;;;;;23.10;19.40;;;2.60;99.90;;;;;;4896033;29;20052;-86
2023/01/20 02:54:07;;;;;;;22.33;19.23;;;2.60;99.90;;;;;;4865140;29;20041;-87
2023/01/20 02:56:33;;;;;;;25.27;19.93;;;2.60;99.90;;;;;;4896293;29;20036;-87
2023/01/20 02:59:12;;;;;;;23.80;19.23;;;2.60;99.90;;;;;;4863925;29;20051;-87
2023/01/20 03:01:46;;;;;;;24.47;20.87;;;2.70;99.90;;;;;;4900632;29;20033;-86
2023/01/20 03:04:13;;;;;;;24.40;19.63;;;2.60;99.90;;;;;;4868988;29;20401;-88
2023/01/20 03:06:41;;;;;;;24.83;20.37;;;2.60;99.90;;;;;;4891472;29;20553;-87
2023/01/20 03:09:09;;;;;;;25.93;20.90;;;2.50;99.90;;;;;;4909585;29;20051;-87
2023/01/20 03:11:38;;;;;;;23.57;20.13;;;2.50;99.90;;;;;;4897748;29;20036;-87
2023/01/20 03:14:06;;;;;;;24.87;20.07;;;2.50;99.90;;;;;;4965867;28;20515;-86
2023/01/20 03:16:32;;;;;;;28.03;20.37;;;2.50;99.90;;;;;;4968570;28;20046;-87
2023/01/20 03:18:58;;;;;;;30.30;19.97;;;2.50;99.90;;;;;;4971755;28;20030;-87
2023/01/20 03:21:25;;;;;;;26.03;20.97;;;2.50;99.90;;;;;;4945481;28;20038;-87
2023/01/20 03:23:52;;;;;;;24.93;19.60;;;2.60;99.90;;;;;;4977325;28;20030;-88
2023/01/20 03:26:19;;;;;;;22.43;20.03;;;2.60;99.90;;;;;;4955562;28;20023;-87
2023/01/20 03:28:47;;;;;;;23.37;20.40;;;2.60;99.90;;;;;;4987189;28;20050;-87
2023/01/20 03:31:38;;;;;;;21.73;18.60;;;2.50;99.90;;;;;;4977958;28;20031;-87
2023/01/20 03:34:05;;;;;;;;;;;2.60;99.90;;;;;;5023005;28;20038;-87
2023/01/20 03:36:31;;;;;;;23.63;20.83;;;2.50;99.90;;;;;;4982695;28;19906;-87
2023/01/20 03:38:58;;;;;;;26.67;20.53;;;2.40;99.90;;;;;;5024985;28;20022;-87
2023/01/20 03:41:29;;;;;;;25.20;20.13;;;2.40;99.90;;;;;;5008615;28;20033;-87
2023/01/20 03:44:03;;;;;;;26.27;19.03;;;2.40;99.90;;;;;;5024145;28;20317;-88
2023/01/20 03:46:42;;;;;;;24.83;20.17;;;2.40;99.90;;;;;;5024824;28;20515;-87
2023/01/20 03:49:18;;;;;;;24.30;19.17;;;2.50;99.90;;;;;;5005868;28;20038;-87
2023/01/20 03:51:54;;;;;;;21.93;19.67;;;2.40;99.90;;;;;;5023068;28;20039;-87
2023/01/20 03:54:23;;;;;;;25.43;20.53;;;2.40;99.90;;;;;;4984436;28;20038;-88
2023/01/20 03:57:23;;;;;;;26.80;20.30;;;2.40;99.90;;;;;;4988622;28;20384;-85
2023/01/20 03:59:49;;;;;;;23.40;20.67;;;2.40;99.90;;;;;;4974957;28;20041;-86
2023/01/20 04:02:15;;;;;;;24.73;20.50;;;2.40;99.90;;;;;;4978503;28;20033;-87
2023/01/20 04:04:42;;;;;;;24.60;19.93;;;2.30;99.90;;;;;;5016596;28;20041;-87
2023/01/20 04:07:13;;;;;;;26.87;20.43;;;2.30;99.90;;;;;;4994214;28;20038;-88
2023/01/20 04:09:43;;;;;;;26.13;21.15;;;2.30;99.90;;;;;;4995413;28;20447;-88
2023/01/20 04:12:09;;;;;;;25.53;20.07;;;2.30;99.90;;;;;;4995843;28;20030;-87
2023/01/20 04:14:35;;;;;;;23.73;21.03;;;2.30;99.90;;;;;;4979761;28;20057;-88
2023/01/20 04:17:02;;;;;;;27.90;21.13;;;2.30;99.90;;;;;;4993235;28;20042;-89
2023/01/20 04:19:28;;;;;;;27.20;20.47;;;2.20;99.90;;;;;;4984005;28;20515;-88
2023/01/20 04:22:20;;;;;;;22.47;19.43;;;2.30;99.90;;;;;;5010146;28;20038;-88
2023/01/20 04:24:55;;;;;;;23.60;18.53;;;2.20;99.90;;;;;;4960399;28;20046;-88
2023/01/20 04:27:21;;;;;;;24.17;19.57;;;2.20;99.90;;;;;;4987632;28;20045;-88
2023/01/20 04:29:47;;;;;;;22.07;19.07;;;2.20;99.90;;;;;;4994183;28;20427;-88
2023/01/20 04:32:13;;;;;;;21.30;18.27;;;2.20;99.90;;;;;;4994137;28;20042;-90
2023/01/20 04:34:39;;;;;;;22.90;17.90;;;2.30;99.90;;;;;;5007532;28;20073;-88
2023/01/20 04:37:05;;;;;;;22.83;18.43;;;2.30;99.90;;;;;;4992955;28;20030;-87
2023/01/20 04:39:31;;;;;;;628.70;68.87;;;2.40;99.90;;;;;;4992508;28;20038;-87
2023/01/20 04:41:57;;;;;;;20.83;17.67;;;2.40;99.90;;;;;;4992445;28;20037;-87
2023/01/20 04:44:23;;;;;;;20.90;17.50;;;2.40;99.90;;;;;;5004495;28;20042;-89
2023/01/20 04:46:49;;;;;;;139.80;26.27;;;2.30;99.90;;;;;;4980582;28;20038;-88
2023/01/20 04:49:16;;;;;;;561.30;57.63;;;2.30;99.90;;;;;;5010036;28;20049;-90
2023/01/20 04:51:42;;;;;;;21.60;17.77;;;2.30;99.90;;;;;;5008686;28;20395;-88
2023/01/20 04:54:08;;;;;;;18.73;16.83;;;2.30;99.90;;;;;;4996994;28;20037;-91
2023/01/20 04:56:34;;;;;;;25.47;18.50;;;2.20;99.90;;;;;;5004783;28;20373;-91
2023/01/20 04:59:00;;;;;;;267.27;31.63;;;2.20;99.90;;;;;;5003927;28;20038;-90
2023/01/20 05:01:26;;;;;;;438.13;43.37;;;2.20;99.90;;;;;;4995124;28;20035;-90
2023/01/20 05:03:52;;;;;;;38.50;23.30;;;2.20;99.90;;;;;;4996426;28;20481;-92
2023/01/20 05:06:18;;;;;;;24.57;19.40;;;2.20;99.90;;;;;;4997695;28;20046;-90
2023/01/20 05:08:44;;;;;;;1573.30;135.67;;;2.10;99.90;;;;;;4998155;28;20054;-89
2023/01/20 05:11:10;;;;;;;1646.77;105.97;;;2.10;99.90;;;;;;5014831;28;20046;-91
2023/01/20 05:13:38;;;;;;;63.30;34.73;;;2.20;99.90;;;;;;5013858;28;20396;-91
2023/01/20 05:16:06;;;;;;;51.73;29.33;;;2.20;99.90;;;;;;4994202;28;20042;-87
2023/01/20 05:18:33;;;;;;;67.23;24.23;;;2.10;99.90;;;;;;5031745;28;20030;-87
2023/01/20 05:20:59;;;;;;;55.67;33.13;;;2.10;99.90;;;;;;4992233;28;20034;-89
2023/01/20 05:23:25;;;;;;;52.93;31.80;;;2.10;99.90;;;;;;4979528;28;20488;-88
2023/01/20 05:25:51;;;;;;;37.37;25.77;;;1.90;99.90;;;;;;5011943;28;20030;-89
2023/01/20 05:28:18;;;;;;;48.17;28.90;;;2.00;99.90;;;;;;4999660;28;20062;-89
2023/01/20 05:30:44;;;;;;;48.80;30.33;;;1.90;99.90;;;;;;5015481;28;20053;-89
2023/01/20 05:33:10;;;;;;;41.23;25.77;;;2.00;99.90;;;;;;5019979;28;20038;-90
2023/01/20 05:35:37;;;;;;;58.40;35.93;;;1.90;99.90;;;;;;5020660;28;20030;-90
2023/01/20 05:38:03;;;;;;;58.73;35.63;;;1.90;99.90;;;;;;5001826;28;20041;-89
2023/01/20 05:40:29;;;;;;;53.07;34.67;;;1.90;99.90;;;;;;5015278;28;20046;-89
2023/01/20 05:42:58;;;;;;;35.93;24.87;;;1.90;99.90;;;;;;5001546;28;20037;-89
2023/01/20 05:45:24;;;;;;;19.57;17.37;;;1.90;99.90;;;;;;5014818;28;20035;-89
2023/01/20 05:47:55;;;;;;;96.87;23.97;;;1.90;99.90;;;;;;5016695;28;20030;-91
2023/01/20 05:50:21;;;;;;;34.72;19.65;;;1.90;99.90;;;;;;4985816;28;20054;-90
2023/01/20 05:52:47;;;;;;;23.47;18.20;;;1.90;99.90;;;;;;5000658;28;20034;-89
2023/01/20 05:55:13;;;;;;;24.17;18.50;;;1.90;99.90;;;;;;5012244;28;20033;-89
2023/01/20 05:57:39;;;;;;;28.67;18.83;;;1.90;99.90;;;;;;5016198;28;20036;-89
2023/01/20 06:00:06;;;;;;;372.37;36.27;;;1.90;99.90;;;;;;5011005;28;20029;-89
2023/01/20 06:02:32;;;;;;;43.90;23.30;;;1.90;99.90;;;;;;4996746;28;20038;-89
2023/01/20 06:05:00;;;;;;;554.67;50.07;;;1.90;99.90;;;;;;5005567;28;20027;-89
2023/01/20 06:07:28;;;;;;;27.30;21.13;;;1.90;99.90;;;;;;5034100;28;20030;-89
2023/01/20 06:09:54;;;;;;;454.70;48.63;;;1.80;99.90;;;;;;5037988;28;20038;-88
2023/01/20 06:12:20;;;;;;;31.93;21.40;;;1.80;99.90;;;;;;5015138;28;20041;-90
2023/01/20 06:14:46;;;;;;;220.67;31.80;;;1.80;99.90;;;;;;5015693;28;20042;-92
2023/01/20 06:17:12;;;;;;;35.60;22.40;;;1.80;99.90;;;;;;4991292;28;20045;-90
2023/01/20 06:19:38;;;;;;;40.30;24.60;;;1.80;99.90;;;;;;5005539;28;20034;-92
2023/01/20 06:22:06;;;;;;;41.33;24.70;;;1.90;99.90;;;;;;5002357;28;20041;-93
2023/01/20 06:24:32;;;;;;;69.63;30.70;;;1.80;99.90;;;;;;4992115;28;20039;-93
2023/01/20 06:26:58;;;;;;;44.60;26.17;;;1.80;99.90;;;;;;4965647;28;20049;-93
2023/01/20 06:29:24;;;;;;;46.43;27.87;;;1.80;99.90;;;;;;4963137;28;20065;-92
2023/01/20 06:31:50;;;;;;;41.30;25.03;;;1.80;99.90;;;;;;4979523;28;20482;-92
2023/01/20 06:34:17;;;;;;;139.97;24.90;;;1.90;99.90;;;;;;4995214;28;20051;-92
2023/01/20 06:36:43;;;;;;;361.40;45.83;;;1.90;99.90;;;;;;4979853;28;20042;-92
2023/01/20 06:39:09;;;;;;;35.43;23.83;;;1.90;99.90;;;;;;4997783;28;20384;-92
2023/01/20 06:41:35;;;;;;;31.37;22.43;;;1.90;99.90;;;;;;5029385;28;20030;-93
2023/01/20 06:44:01;;;;;;;34.97;22.10;;;1.90;99.90;;;;;;4997903;28;20057;-93
2023/01/20 06:46:27;;;;;;;29.20;22.13;;;1.80;99.90;;;;;;5028861;28;20027;-92
2023/01/20 06:48:59;;;;;;;29.97;23.23;;;1.90;99.90;;;;;;4997716;28;20057;-93
2023/01/20 06:51:26;;;;;;;197.43;29.03;;;1.90;99.90;;;;;;4996899;28;20364;-92
2023/01/20 06:53:52;;;;;;;25.37;19.83;;;2.00;99.90;;;;;;4995617;28;20034;-92
2023/01/20 06:56:19;;;;;;;1481.30;150.53;;;1.90;99.90;;;;;;5011649;28;20041;-93
2023/01/20 06:58:45;;;;;;;54.90;29.07;;;1.80;99.90;;;;;;4997595;28;20034;-93
2023/01/20 07:01:13;;;;;;;68.30;33.77;;;1.80;99.90;;;;;;4997784;28;20411;-92
2023/01/20 07:03:41;;;;;;;37.07;24.77;;;1.90;99.90;;;;;;4992715;28;20029;-84
2023/01/20 07:06:17;;;;;;;51.33;27.37;;;1.90;99.90;;;;;;5007780;28;20030;-86
2023/01/20 07:08:43;;;;;;;115.37;34.90;;;1.90;99.90;;;;;;5024351;28;20026;-89
2023/01/20 07:11:09;;;;;;;62.30;33.03;;;2.00;99.90;;;;;;4992173;28;20433;-92
2023/01/20 07:13:35;;;;;;;57.53;32.07;;;1.90;99.90;;;;;;4993192;28;20415;-85
2023/01/20 07:16:02;;;;;;;56.20;33.43;;;1.80;99.90;;;;;;4993153;28;20042;-86
2023/01/20 07:18:28;;;;;;;74.70;38.30;;;1.90;99.90;;;;;;4993752;28;20057;-85
2023/01/20 07:20:55;;;;;;;74.70;39.97;;;1.90;99.90;;;;;;5025148;28;20034;-85
2023/01/20 07:23:21;;;;;;;69.27;36.23;;;1.80;99.90;;;;;;4991987;28;20033;-85
2023/01/20 07:25:56;;;;;;;55.73;29.50;;;1.80;99.90;;;;;;5008088;28;20089;-85
2023/01/20 07:28:22;;;;;;;101.47;25.00;;;1.80;99.90;;;;;;5007138;28;20046;-87
2023/01/20 07:30:48;;;;;;;38.50;24.17;;;1.80;99.90;;;;;;5007612;28;20039;-86
2023/01/20 07:33:14;;;;;;;37.30;22.30;;;1.80;99.90;;;;;;4974284;28;20380;-87
2023/01/20 07:35:41;;;;;;;28.43;20.73;;;1.70;99.90;;;;;;4990240;28;20031;-85
2023/01/20 07:38:07;;;;;;;32.60;21.20;;;1.60;99.90;;;;;;4992433;28;20053;-85
2023/01/20 07:40:33;;;;;;;30.77;22.50;;;1.60;99.90;;;;;;4993054;28;20061;-84
2023/01/20 07:43:01;;;;;;;40.47;24.47;;;1.60;99.90;;;;;;5023787;28;20458;-84
2023/01/20 07:45:27;;;;;;;41.83;27.30;;;1.60;99.90;;;;;;4992473;28;20034;-89
2023/01/20 07:47:55;;;;;;;38.97;23.90;;;1.60;99.90;;;;;;4992828;28;20031;-86
2023/01/20 07:50:22;;;;;;;43.33;27.33;;;1.60;99.90;;;;;;4976523;28;20047;-88
2023/01/20 07:52:48;;;;;;;45.13;25.23;;;1.60;99.90;;;;;;4993345;28;20038;-87
2023/01/20 07:55:14;;;;;;;49.43;27.17;;;1.60;99.90;;;;;;4992103;28;20038;-89
2023/01/20 07:57:40;;;;;;;38.30;25.90;;;1.60;99.90;;;;;;4991918;28;20538;-87
2023/01/20 08:00:07;;;;;;;37.33;25.00;;;1.50;99.90;;;;;;5024958;28;20034;-88
2023/01/20 08:02:39;;;;;;;34.30;24.50;;;1.60;99.90;;;;;;4992227;28;20046;-87
2023/01/20 08:05:06;;;;;;;38.17;25.10;;;1.70;99.90;;;;;;4992567;28;20038;-87
2023/01/20 08:07:32;;;;;;;36.03;26.67;;;1.70;99.90;;;;;;4985631;28;20406;-86
2023/01/20 08:09:58;;;;;;;653.57;84.33;;;1.80;99.90;;;;;;5022072;28;20034;-84
2023/01/20 08:12:24;;;;;;;430.77;58.73;;;1.90;99.90;;;;;;4991103;28;20038;-85
2023/01/20 08:14:50;;;;;;;951.70;92.60;;;1.90;99.90;;;;;;4989269;28;20046;-85
2023/01/20 08:17:16;;;;;;;29.87;25.33;;;2.00;99.90;;;;;;4991408;28;20475;-85
2023/01/20 08:19:42;;;;;;;984.60;219.80;;;2.00;99.90;;;;;;4991856;28;20043;-86
2023/01/20 08:22:09;;;;;;;714.27;57.97;;;2.00;99.90;;;;;;4991846;28;20392;-85
2023/01/20 08:24:35;;;;;;;113.17;26.90;;;2.00;99.90;;;;;;4975579;28;20475;-87
2023/01/20 08:27:01;;;;;;;40.10;23.30;;;2.10;99.90;;;;;;4987169;28;20029;-91
2023/01/20 08:29:27;;;;;;;31.47;24.40;;;2.10;99.90;;;;;;4993531;28;20050;-89
2023/01/20 08:31:53;;;;;;;33.83;25.47;;;2.20;99.90;;;;;;5027736;28;20427;-87
2023/01/20 08:34:20;;;;;;;38.43;24.80;;;2.20;99.90;;;;;;5018407;28;20456;-89
2023/01/20 08:36:48;;;;;;;33.13;24.40;;;2.20;99.90;;;;;;5029857;28;20022;-86
2023/01/20 08:39:17;;;;;;;31.00;24.37;;;2.30;99.90;;;;;;5009720;28;20030;-88
2023/01/20 08:41:43;;;;;;;1219.40;132.43;;;2.30;99.90;;;;;;4985780;28;20042;-87
2023/01/20 08:44:09;;;;;;;32.53;25.93;;;2.30;99.90;;;;;;4989019;28;20053;-84
2023/01/20 08:46:36;;;;;;;139.90;30.47;;;2.30;99.90;;;;;;5007537;28;20472;-89
2023/01/20 08:49:06;;;;;;;1126.63;86.23;;;2.40;99.90;;;;;;5015220;28;20027;-93
2023/01/20 08:51:32;;;;;;;66.87;26.17;;;2.40;99.90;;;;;;4966705;28;20045;-89
2023/01/20 08:53:59;;;;;;;32.77;23.83;;;2.40;99.90;;;;;;4998445;28;20050;-89
2023/01/20 08:56:25;;;;;;;34.63;24.87;;;2.40;99.90;;;;;;5012499;28;20417;-90
2023/01/20 08:58:52;;;;;;;32.30;24.57;;;2.50;99.90;;;;;;5021376;28;20030;-88
2023/01/20 09:01:20;;;;;;;363.60;44.07;;;2.50;99.90;;;;;;5017005;28;20368;-85
2023/01/20 09:03:46;;;;;;;73.13;26.20;;;2.50;99.90;;;;;;5012617;28;20468;-88
2023/01/20 09:06:13;;;;;;;32.83;26.07;;;2.50;99.90;;;;;;5001056;28;20046;-86
2023/01/20 09:08:39;;;;;;;33.40;25.37;;;2.50;99.90;;;;;;4987040;28;20568;-83
2023/01/20 09:11:10;;;;;;;34.70;26.13;;;2.60;99.90;;;;;;5008186;28;20047;-92
2023/01/20 09:13:36;;;;;;;34.40;27.40;;;2.60;99.90;;;;;;5003663;28;20468;-90
2023/01/20 09:16:03;;;;;;;38.73;29.10;;;2.60;99.90;;;;;;4987408;28;20403;-88
2023/01/20 09:18:30;;;;;;;148.07;33.80;;;2.70;99.90;;;;;;5002454;28;20034;-90
2023/01/20 09:20:58;;;;;;;228.47;43.47;;;2.60;99.90;;;;;;5009460;28;20368;-88
2023/01/20 09:23:24;;;;;;;37.77;26.47;;;2.60;99.90;;;;;;5022116;28;20022;-87
2023/01/20 09:25:51;;;;;;;39.50;27.33;;;2.70;99.90;;;;;;4978465;28;20046;-84
2023/01/20 09:28:17;;;;;;;29.50;26.43;;;2.80;99.90;;;;;;4982137;28;20058;-83
2023/01/20 09:30:43;;;;;;;32.07;25.67;;;2.80;99.90;;;;;;5032302;28;20492;-85
2023/01/20 09:33:10;;;;;;;31.83;25.37;;;3.00;99.90;;;;;;4994885;28;20034;-86
2023/01/20 09:35:36;;;;;;;31.80;26.13;;;3.00;99.90;;;;;;4993868;28;20038;-86
2023/01/20 09:43:54;;;;;;;31.13;27.73;;;3.10;99.90;;;;;;5025018;28;20037;-89
2023/01/20 09:46:36;;;;;;;31.20;26.10;;;3.10;99.90;;;;;;4991467;28;20044;-87
2023/01/20 09:55:26;;;;;;;278.97;45.23;;;3.40;99.90;;;;;;4997995;28;20042;-88
2023/01/20 09:58:04;;;;;;;32.67;26.57;;;3.60;99.90;;;;;;4987868;28;20043;-90
2023/01/20 10:00:31;;;;;;;27.30;24.20;;;3.90;99.90;;;;;;5030922;28;20501;-90
2023/01/20 10:03:15;;;;;;;28.23;25.17;;;3.80;99.90;;;;;;5010356;28;20034;-89
2023/01/20 10:05:41;;;;;;;29.80;25.13;;;3.70;99.90;;;;;;4994287;28;20042;-90
2023/01/20 10:08:09;;;;;;;28.30;24.63;;;3.70;99.90;;;;;;4986685;28;20026;-91
2023/01/20 10:11:05;;;;;;;27.60;24.13;;;3.70;99.90;;;;;;5027498;28;20038;-85
2023/01/20 10:13:35;;;;;;;26.27;23.57;;;3.80;99.90;;;;;;5019690;28;20027;-87
2023/01/20 10:16:05;;;;;;;25.00;22.30;;;4.00;99.90;;;;;;5002719;28;20030;-86
2023/01/20 10:18:46;;;;;;;31.40;23.07;;;4.20;99.90;;;;;;5009739;28;20026;-85
2023/01/20 10:21:16;;;;;;;24.73;21.93;;;4.40;99.90;;;;;;5017806;28;20036;-89
2023/01/20 10:23:52;;;;;;;29.93;22.77;;;4.60;99.90;;;;;;5001463;28;20026;-86
2023/01/20 10:26:27;;;;;;;33.30;23.80;;;4.90;99.90;;;;;;5014292;28;20022;-84
2023/01/20 10:29:04;;;;;;;35.67;24.60;;;5.00;99.90;;;;;;4983878;28;20046;-85
2023/01/20 10:31:33;;;;;;;25.40;20.87;;;5.10;99.90;;;;;;5007467;28;20045;-84
2023/01/20 10:34:11;;;;;;;27.17;21.30;;;5.30;99.90;;;;;;5009242;28;20037;-80
2023/01/20 10:36:37;;;;;;;25.37;21.83;;;5.40;99.90;;;;;;5006013;28;20038;-83
2023/01/20 10:39:09;;;;;;;40.00;24.13;;;5.30;99.90;;;;;;5025055;28;20029;-85
2023/01/20 10:41:44;;;;;;;37.90;27.63;;;5.20;99.90;;;;;;4987548;28;20123;-89
2023/01/20 10:44:12;;;;;;;34.93;25.07;;;5.30;99.90;;;;;;4974953;28;20050;-84
2023/01/20 10:46:57;;;;;;;24.70;21.20;;;5.20;99.90;;;;;;4989732;28;20137;-86
2023/01/20 10:49:54;;;;;;;22.77;19.80;;;5.20;99.90;;;;;;4987955;28;20042;-83
2023/01/20 10:52:41;;;;;;;20.73;18.53;;;5.20;99.90;;;;;;4990375;28;20511;-88
2023/01/20 10:55:25;;;;;;;20.80;18.60;;;5.30;99.90;;;;;;4992753;28;20045;-87
2023/01/20 10:58:00;;;;;;;20.50;18.60;;;5.60;99.90;;;;;;4992714;28;20050;-87
2023/01/20 11:00:29;;;;;;;22.27;19.37;;;5.80;99.90;;;;;;4994703;28;20038;-85
2023/01/20 11:02:56;;;;;;;33.30;25.37;;;5.90;99.90;;;;;;4990779;28;20498;-86
2023/01/20 11:05:30;;;;;;;24.13;19.50;;;5.90;99.90;;;;;;4987684;28;20034;-86
2023/01/20 11:07:57;;;;;;;22.13;19.50;;;6.00;99.90;;;;;;4985074;28;20030;-87
2023/01/20 11:10:25;;;;;;;20.63;18.63;;;6.00;99.90;;;;;;4976696;28;20027;-88
2023/01/20 11:12:55;;;;;;;34.10;25.80;;;6.00;99.90;;;;;;4958934;28;20050;-88
2023/01/20 11:15:30;;;;;;;25.33;21.10;;;6.00;99.90;;;;;;5008994;28;20053;-85
2023/01/20 11:18:14;;;;;;;31.90;25.83;;;5.90;99.90;;;;;;4972488;28;20053;-87
2023/01/20 11:20:44;;;;;;;23.73;20.60;;;5.90;99.90;;;;;;5011878;28;20030;-83
2023/01/20 11:23:37;;;;;;;21.20;19.10;;;6.00;99.90;;;;;;4997416;28;20539;-90
2023/01/20 11:26:25;;;;;;;23.57;19.17;;;6.10;99.90;;;;;;5012613;28;20034;-82
2023/01/20 11:29:00;;;;;;;20.37;18.57;;;6.20;99.90;;;;;;4973976;28;20392;-82
2023/01/20 11:31:50;;;;;;;19.13;17.13;;;6.30;99.90;;;;;;4980864;28;20046;-82
2023/01/20 11:34:22;;;;;;;18.87;17.07;;;6.30;99.90;;;;;;5003959;28;20030;-82
2023/01/20 11:37:19;;;;;;;20.57;17.87;;;6.40;99.90;;;;;;4989590;28;20041;-82
2023/01/20 11:40:18;;;;;;;25.90;19.33;;;6.50;99.90;;;;;;4976966;28;20416;-82
2023/01/20 11:42:45;;;;;;;19.53;17.47;;;6.70;99.90;;;;;;5015854;28;20026;-82
2023/01/20 11:45:28;;;;;;;19.20;17.30;;;6.70;99.90;;;;;;4987526;28;20026;-82
2023/01/20 11:48:17;;;;;;;18.40;16.50;;;6.90;99.90;;;;;;5006066;28;20394;-82
2023/01/20 11:50:48;;;;;;;18.57;16.77;;;6.90;99.90;;;;;;4990806;28;20050;-82
2023/01/20 11:53:25;;;;;;;18.47;16.97;;;7.10;99.90;;;;;;4991511;28;20522;-82
2023/01/20 11:56:12;;;;;;;19.85;18.13;;;7.30;99.90;;;;;;4992077;28;20030;-82
2023/01/20 11:58:51;;;;;;;19.35;17.42;;;7.50;99.90;;;;;;4980066;28;20030;-82
2023/01/20 12:01:25;;;;;;;19.20;16.60;;;7.80;99.90;;;;;;4977316;28;20381;-82
2023/01/20 12:04:21;;;;;;;18.77;17.17;;;7.90;99.90;;;;;;5004114;28;20038;-82
2023/01/20 12:06:55;;;;;;;19.40;17.38;;;8.10;99.90;;;;;;4974839;28;20058;-82
2023/01/20 12:09:24;;;;;;;19.90;18.05;;;8.20;99.90;;;;;;5004766;28;20023;-82
2023/01/20 12:12:00;;;;;;;19.38;17.67;;;8.40;99.90;;;;;;5004622;28;20043;-82
2023/01/20 12:14:52;;;;;;;18.67;16.65;;;8.70;99.90;;;;;;5004460;28;20039;-82
2023/01/20 12:17:32;;;;;;;17.40;15.85;;;8.60;99.90;;;;;;5021334;28;20046;-83
2023/01/20 12:19:58;;;;;;;19.23;17.65;;;8.30;99.90;;;;;;4992312;28;20030;-83
2023/01/20 12:22:31;;;;;;;21.35;19.23;;;8.30;99.90;;;;;;4988463;28;20046;-82
2023/01/20 12:25:09;;;;;;;17.48;16.05;;;8.50;99.90;;;;;;4991800;28;20384;-82
2023/01/20 12:27:56;;;;;;;19.00;17.02;;;8.60;99.90;;;;;;4991152;28;20057;-82
2023/01/20 12:30:44;;;;;;;18.67;16.90;;;8.80;99.90;;;;;;4992093;28;20053;-82
2023/01/20 12:33:42;;;;;;;19.77;18.13;;;9.00;99.90;;;;;;4985800;28;20390;-83
2023/01/20 12:36:15;;;;;;;17.00;15.48;;;9.10;99.90;;;;;;4986823;28;20035;-82
2023/01/20 12:39:22;;;;;;;17.00;15.52;;;9.20;99.90;;;;;;4991396;28;20041;-83
2023/01/20 12:42:09;;;;;;;19.45;17.65;;;9.30;99.90;;;;;;4991695;28;20045;-83
2023/01/20 12:44:39;;;;;;;17.73;16.20;;;9.20;99.90;;;;;;4991032;28;20395;-83
2023/01/20 12:47:39;;;;;;;20.90;18.85;;;8.90;99.90;;;;;;4989263;28;20496;-83
2023/01/20 12:50:05;;;;;;;19.02;17.02;;;8.80;99.90;;;;;;4992401;28;20038;-83
2023/01/20 12:52:50;;;;;;;18.40;16.67;;;8.80;99.90;;;;;;4991950;28;20026;-83
2023/01/20 12:55:35;;;;;;;32.28;23.67;;;8.70;99.90;;;;;;4990995;28;20540;-83
2023/01/20 12:58:10;;;;;;;21.67;19.40;;;8.70;99.90;;;;;;5019154;28;20038;-82
2023/01/20 13:00:55;;;;;;;19.73;17.67;;;8.70;99.90;;;;;;4976999;28;20034;-82
2023/01/20 13:03:42;;;;;;;18.60;16.98;;;8.60;99.90;;;;;;5020025;28;20475;-83
2023/01/20 13:06:08;;;;;;;18.55;16.85;;;8.50;99.90;;;;;;4975682;28;20034;-83